createdAt,value
2017-07-23T00:00:13.661Z,937.54
2017-07-23T00:00:41.830Z,937.54
2017-07-23T00:01:10.050Z,937.51
2017-07-23T00:01:38.010Z,937.55
2017-07-23T00:02:06.143Z,937.57
2017-07-23T00:02:34.335Z,937.56
2017-07-23T00:03:02.393Z,937.56
2017-07-23T00:03:30.612Z,937.57
2017-07-23T00:03:58.819Z,937.54
2017-07-23T00:04:26.976Z,937.6
2017-07-23T00:04:55.177Z,937.55
2017-07-23T00:05:23.368Z,937.58
2017-07-23T00:05:51.615Z,937.56
2017-07-23T00:06:19.841Z,937.58
2017-07-23T00:06:48.071Z,937.56
2017-07-23T00:07:16.427Z,937.55
2017-07-23T00:07:44.666Z,937.57
2017-07-23T00:08:12.952Z,937.58
2017-07-23T00:08:41.066Z,937.59
2017-07-23T00:09:09.115Z,937.6
2017-07-23T00:09:37.286Z,937.59
2017-07-23T00:10:05.541Z,937.59
2017-07-23T00:10:33.789Z,937.62
2017-07-23T00:11:01.877Z,937.58
2017-07-23T00:11:29.994Z,937.64
2017-07-23T00:11:58.134Z,937.67
2017-07-23T00:12:26.401Z,937.65
2017-07-23T00:12:54.537Z,937.65
2017-07-23T00:13:22.659Z,937.62
2017-07-23T00:13:50.864Z,937.61
2017-07-23T00:14:19.090Z,937.66
2017-07-23T00:14:47.081Z,937.67
2017-07-23T00:15:15.196Z,937.64
2017-07-23T00:15:43.423Z,937.64
2017-07-23T00:16:11.567Z,937.66
2017-07-23T00:16:39.776Z,937.66
2017-07-23T00:17:08.013Z,937.6
2017-07-23T00:17:36.210Z,937.71
2017-07-23T00:18:04.454Z,937.64
2017-07-23T00:18:32.646Z,937.72
2017-07-23T00:19:00.890Z,937.67
2017-07-23T00:19:29.089Z,937.71
2017-07-23T00:19:57.329Z,937.67
2017-07-23T00:20:25.476Z,937.72
2017-07-23T00:20:53.557Z,937.73
2017-07-23T00:21:21.645Z,937.76
2017-07-23T00:21:49.783Z,937.73
2017-07-23T00:22:18.033Z,937.77
2017-07-23T00:22:46.051Z,937.76
2017-07-23T00:23:14.289Z,937.77
2017-07-23T00:23:42.293Z,937.79
2017-07-23T00:24:10.471Z,937.83
2017-07-23T00:24:38.694Z,937.83
2017-07-23T00:25:06.933Z,937.79
2017-07-23T00:25:35.145Z,937.8
2017-07-23T00:26:03.301Z,937.77
2017-07-23T00:26:31.543Z,937.78
2017-07-23T00:26:59.810Z,937.78
2017-07-23T00:27:28.101Z,937.78
2017-07-23T00:27:56.257Z,937.8
2017-07-23T00:28:24.407Z,937.78
2017-07-23T00:28:52.617Z,937.78
2017-07-23T00:29:20.859Z,937.8
2017-07-23T00:29:49.117Z,937.81
2017-07-23T00:30:17.352Z,937.84
2017-07-23T00:30:45.556Z,937.8
2017-07-23T00:31:13.730Z,937.82
2017-07-23T00:31:41.666Z,937.8
2017-07-23T00:32:09.882Z,937.79
2017-07-23T00:32:38.311Z,937.8
2017-07-23T00:33:06.249Z,937.84
2017-07-23T00:33:34.350Z,937.79
2017-07-23T00:34:02.505Z,937.8
2017-07-23T00:34:30.738Z,937.82
2017-07-23T00:34:58.907Z,937.79
2017-07-23T00:35:27.167Z,937.8
2017-07-23T00:35:55.313Z,937.8
2017-07-23T00:36:23.338Z,937.86
2017-07-23T00:36:51.518Z,937.84
2017-07-23T00:37:19.707Z,937.8
2017-07-23T00:37:48.015Z,937.84
2017-07-23T00:38:16.260Z,937.83
2017-07-23T00:38:44.339Z,937.89
2017-07-23T00:39:12.540Z,937.86
2017-07-23T00:39:40.750Z,937.9
2017-07-23T00:40:08.883Z,937.9
2017-07-23T00:40:37.112Z,937.93
2017-07-23T00:41:05.299Z,937.93
2017-07-23T00:41:33.650Z,937.95
2017-07-23T00:42:01.748Z,937.97
2017-07-23T00:42:30.063Z,937.92
2017-07-23T00:42:58.198Z,937.95
2017-07-23T00:43:26.094Z,937.95
2017-07-23T00:43:54.320Z,937.95
2017-07-23T00:44:22.501Z,937.99
2017-07-23T00:44:50.630Z,937.99
2017-07-23T00:45:18.646Z,937.94
2017-07-23T00:45:46.802Z,937.94
2017-07-23T00:46:14.886Z,937.96
2017-07-23T00:46:43.010Z,937.93
2017-07-23T00:47:11.220Z,937.94
2017-07-23T00:47:39.525Z,937.94
2017-07-23T00:48:07.753Z,937.92
2017-07-23T00:48:35.942Z,937.88
2017-07-23T00:49:04.167Z,937.92
2017-07-23T00:49:32.384Z,937.94
2017-07-23T00:50:00.542Z,937.94
2017-07-23T00:50:28.696Z,937.95
2017-07-23T00:50:56.742Z,937.92
2017-07-23T00:51:25.002Z,937.9
2017-07-23T00:51:53.105Z,937.89
2017-07-23T00:52:21.232Z,937.94
2017-07-23T00:52:49.349Z,937.89
2017-07-23T00:53:17.570Z,937.91
2017-07-23T00:53:45.691Z,937.9
2017-07-23T00:54:13.854Z,937.9
2017-07-23T00:54:42.085Z,937.95
2017-07-23T00:55:10.191Z,937.93
2017-07-23T00:55:38.346Z,937.93
2017-07-23T00:56:06.553Z,937.92
2017-07-23T00:56:34.797Z,937.93
2017-07-23T00:57:03.011Z,937.93
2017-07-23T00:57:31.018Z,937.94
2017-07-23T00:57:59.222Z,937.9
2017-07-23T00:58:27.381Z,937.89
2017-07-23T00:58:55.593Z,937.91
2017-07-23T00:59:23.824Z,937.87
2017-07-23T00:59:52.042Z,937.87
2017-07-23T01:00:20.274Z,937.9
2017-07-23T01:00:48.516Z,937.89
2017-07-23T01:01:16.724Z,937.91
2017-07-23T01:01:44.949Z,937.94
2017-07-23T01:02:13.127Z,937.92
2017-07-23T01:02:41.425Z,937.93
2017-07-23T01:03:09.691Z,937.95
2017-07-23T01:03:37.929Z,937.94
2017-07-23T01:04:06.164Z,937.97
2017-07-23T01:04:34.301Z,937.94
2017-07-23T01:05:02.412Z,937.93
2017-07-23T01:05:30.533Z,937.98
2017-07-23T01:05:58.741Z,937.95
2017-07-23T01:06:26.927Z,937.94
2017-07-23T01:06:55.122Z,938
2017-07-23T01:07:23.334Z,937.96
2017-07-23T01:07:51.588Z,937.96
2017-07-23T01:08:19.700Z,937.96
2017-07-23T01:08:47.833Z,937.95
2017-07-23T01:09:15.972Z,937.98
2017-07-23T01:09:44.009Z,937.99
2017-07-23T01:10:12.233Z,937.99
2017-07-23T01:10:40.450Z,938.02
2017-07-23T01:11:08.682Z,938
2017-07-23T01:11:36.799Z,937.99
2017-07-23T01:12:04.937Z,937.99
2017-07-23T01:12:33.164Z,937.98
2017-07-23T01:13:01.426Z,938.02
2017-07-23T01:13:29.602Z,937.97
2017-07-23T01:13:57.760Z,938
2017-07-23T01:14:25.952Z,938.02
2017-07-23T01:14:54.141Z,938
2017-07-23T01:15:22.187Z,938.02
2017-07-23T01:15:50.377Z,938.01
2017-07-23T01:16:18.593Z,937.98
2017-07-23T01:16:46.619Z,938.03
2017-07-23T01:17:14.831Z,938
2017-07-23T01:17:42.955Z,938
2017-07-23T01:18:11.357Z,938.03
2017-07-23T01:18:39.405Z,938
2017-07-23T01:19:07.548Z,938
2017-07-23T01:19:35.800Z,938.03
2017-07-23T01:20:04.002Z,938.04
2017-07-23T01:20:32.179Z,938.01
2017-07-23T01:21:00.432Z,937.99
2017-07-23T01:21:28.683Z,938
2017-07-23T01:21:56.942Z,938.01
2017-07-23T01:22:25.138Z,938.01
2017-07-23T01:22:53.417Z,938
2017-07-23T01:23:21.570Z,938.01
2017-07-23T01:23:49.571Z,937.98
2017-07-23T01:24:17.776Z,937.99
2017-07-23T01:24:45.844Z,938
2017-07-23T01:25:13.984Z,938
2017-07-23T01:25:42.234Z,937.99
2017-07-23T01:26:10.353Z,937.99
2017-07-23T01:26:38.607Z,938.01
2017-07-23T01:27:06.824Z,938
2017-07-23T01:27:35.011Z,937.99
2017-07-23T01:28:03.233Z,937.99
2017-07-23T01:28:31.465Z,937.95
2017-07-23T01:28:59.438Z,938
2017-07-23T01:29:27.572Z,938.01
2017-07-23T01:29:55.808Z,938.04
2017-07-23T01:30:23.988Z,938.02
2017-07-23T01:30:52.069Z,938.01
2017-07-23T01:31:20.277Z,937.99
2017-07-23T01:31:48.516Z,938
2017-07-23T01:32:16.735Z,937.97
2017-07-23T01:32:44.798Z,937.97
2017-07-23T01:33:13.030Z,937.98
2017-07-23T01:33:41.168Z,937.94
2017-07-23T01:34:09.341Z,937.94
2017-07-23T01:34:37.450Z,937.92
2017-07-23T01:35:05.654Z,937.95
2017-07-23T01:35:33.824Z,937.95
2017-07-23T01:36:01.870Z,937.92
2017-07-23T01:36:30.115Z,937.92
2017-07-23T01:36:58.205Z,937.92
2017-07-23T01:37:26.404Z,937.95
2017-07-23T01:37:54.581Z,937.88
2017-07-23T01:38:22.851Z,937.93
2017-07-23T01:38:50.889Z,937.9
2017-07-23T01:39:19.059Z,937.88
2017-07-23T01:39:47.331Z,937.89
2017-07-23T01:40:15.489Z,937.91
2017-07-23T01:40:43.740Z,937.89
2017-07-23T01:41:11.864Z,937.87
2017-07-23T01:41:40.059Z,937.86
2017-07-23T01:42:08.177Z,937.84
2017-07-23T01:42:36.319Z,937.84
2017-07-23T01:43:04.625Z,937.88
2017-07-23T01:43:32.814Z,937.84
2017-07-23T01:44:00.934Z,937.86
2017-07-23T01:44:29.180Z,937.9
2017-07-23T01:44:57.336Z,937.86
2017-07-23T01:45:25.575Z,937.88
2017-07-23T01:45:53.851Z,937.85
2017-07-23T01:46:21.946Z,937.88
2017-07-23T01:46:50.081Z,937.84
2017-07-23T01:47:18.289Z,937.89
2017-07-23T01:47:46.311Z,937.84
2017-07-23T01:48:14.535Z,937.83
2017-07-23T01:48:42.645Z,937.85
2017-07-23T01:49:10.843Z,937.82
2017-07-23T01:49:38.950Z,937.84
2017-07-23T01:50:07.155Z,937.84
2017-07-23T01:50:35.081Z,937.82
2017-07-23T01:51:03.311Z,937.81
2017-07-23T01:51:31.522Z,937.79
2017-07-23T01:51:59.547Z,937.73
2017-07-23T01:52:27.646Z,937.76
2017-07-23T01:52:55.884Z,937.67
2017-07-23T01:53:24.090Z,937.7
2017-07-23T01:53:52.310Z,937.69
2017-07-23T01:54:20.366Z,937.68
2017-07-23T01:54:48.576Z,937.62
2017-07-23T01:55:16.702Z,937.63
2017-07-23T01:55:44.834Z,937.68
2017-07-23T01:56:13.056Z,937.63
2017-07-23T01:56:41.109Z,937.69
2017-07-23T01:57:09.161Z,937.73
2017-07-23T01:57:37.279Z,937.69
2017-07-23T01:58:05.293Z,937.71
2017-07-23T01:58:33.803Z,937.73
2017-07-23T01:59:01.869Z,937.73
2017-07-23T01:59:30.068Z,937.76
2017-07-23T01:59:58.311Z,937.76
2017-07-23T02:00:26.445Z,937.74
2017-07-23T02:00:54.350Z,937.76
2017-07-23T02:01:22.554Z,937.73
2017-07-23T02:01:50.776Z,937.72
2017-07-23T02:02:18.979Z,937.68
2017-07-23T02:02:46.967Z,937.75
2017-07-23T02:03:15.195Z,937.71
2017-07-23T02:03:43.447Z,937.78
2017-07-23T02:04:11.573Z,937.74
2017-07-23T02:04:39.596Z,937.7
2017-07-23T02:05:07.603Z,937.69
2017-07-23T02:05:35.643Z,937.65
2017-07-23T02:06:03.774Z,937.66
2017-07-23T02:06:31.836Z,937.7
2017-07-23T02:07:00.029Z,937.69
2017-07-23T02:07:28.261Z,937.69
2017-07-23T02:07:56.487Z,937.69
2017-07-23T02:08:24.708Z,937.69
2017-07-23T02:08:52.781Z,937.74
2017-07-23T02:09:21.003Z,937.71
2017-07-23T02:09:49.213Z,937.7
2017-07-23T02:10:17.430Z,937.66
2017-07-23T02:10:45.367Z,937.72
2017-07-23T02:11:13.452Z,937.7
2017-07-23T02:11:41.560Z,937.71
2017-07-23T02:12:09.659Z,937.71
2017-07-23T02:12:37.823Z,937.76
2017-07-23T02:13:06.004Z,937.76
2017-07-23T02:13:34.312Z,937.82
2017-07-23T02:14:02.496Z,937.82
2017-07-23T02:14:30.759Z,937.8
2017-07-23T02:14:59.048Z,937.78
2017-07-23T02:15:27.154Z,937.8
2017-07-23T02:15:55.344Z,937.79
2017-07-23T02:16:23.578Z,937.8
2017-07-23T02:16:51.748Z,937.78
2017-07-23T02:17:19.768Z,937.81
2017-07-23T02:17:47.945Z,937.77
2017-07-23T02:18:16.123Z,937.72
2017-07-23T02:18:44.487Z,937.73
2017-07-23T02:19:12.617Z,937.75
2017-07-23T02:19:40.832Z,937.71
2017-07-23T02:20:08.961Z,937.68
2017-07-23T02:20:37.091Z,937.72
2017-07-23T02:21:05.208Z,937.72
2017-07-23T02:21:33.333Z,937.73
2017-07-23T02:22:01.407Z,937.68
2017-07-23T02:22:29.536Z,937.74
2017-07-23T02:22:57.753Z,937.69
2017-07-23T02:23:25.958Z,937.72
2017-07-23T02:23:54.220Z,937.72
2017-07-23T02:24:22.401Z,937.71
2017-07-23T02:24:50.586Z,937.76
2017-07-23T02:25:18.751Z,937.74
2017-07-23T02:25:47.014Z,937.78
2017-07-23T02:26:15.145Z,937.77
2017-07-23T02:26:43.177Z,937.76
2017-07-23T02:27:11.353Z,937.73
2017-07-23T02:27:39.327Z,937.78
2017-07-23T02:28:07.612Z,937.73
2017-07-23T02:28:35.815Z,937.74
2017-07-23T02:29:03.969Z,937.74
2017-07-23T02:29:32.240Z,937.72
2017-07-23T02:30:00.340Z,937.68
2017-07-23T02:30:28.381Z,937.69
2017-07-23T02:30:56.477Z,937.66
2017-07-23T02:31:24.678Z,937.68
2017-07-23T02:31:52.860Z,937.65
2017-07-23T02:32:20.916Z,937.62
2017-07-23T02:32:49.101Z,937.63
2017-07-23T02:33:17.250Z,937.62
2017-07-23T02:33:45.412Z,937.65
2017-07-23T02:34:13.614Z,937.64
2017-07-23T02:34:41.664Z,937.63
2017-07-23T02:35:09.879Z,937.62
2017-07-23T02:35:38.027Z,937.61
2017-07-23T02:36:06.261Z,937.64
2017-07-23T02:36:34.296Z,937.61
2017-07-23T02:37:02.423Z,937.57
2017-07-23T02:37:30.640Z,937.62
2017-07-23T02:37:58.859Z,937.59
2017-07-23T02:38:26.959Z,937.64
2017-07-23T02:38:55.278Z,937.6
2017-07-23T02:39:23.468Z,937.62
2017-07-23T02:39:51.504Z,937.58
2017-07-23T02:40:19.727Z,937.63
2017-07-23T02:40:47.740Z,937.59
2017-07-23T02:41:15.923Z,937.63
2017-07-23T02:41:44.035Z,937.65
2017-07-23T02:42:12.261Z,937.64
2017-07-23T02:42:40.383Z,937.64
2017-07-23T02:43:08.472Z,937.63
2017-07-23T02:43:36.697Z,937.64
2017-07-23T02:44:05.135Z,937.66
2017-07-23T02:44:33.338Z,937.63
2017-07-23T02:45:01.446Z,937.63
2017-07-23T02:45:29.665Z,937.62
2017-07-23T02:45:57.866Z,937.62
2017-07-23T02:46:26.025Z,937.64
2017-07-23T02:46:54.256Z,937.64
2017-07-23T02:47:22.340Z,937.64
2017-07-23T02:47:50.432Z,937.6
2017-07-23T02:48:18.456Z,937.61
2017-07-23T02:48:46.696Z,937.63
2017-07-23T02:49:14.889Z,937.59
2017-07-23T02:49:42.968Z,937.6
2017-07-23T02:50:11.190Z,937.58
2017-07-23T02:50:39.309Z,937.59
2017-07-23T02:51:07.550Z,937.62
2017-07-23T02:51:35.799Z,937.61
2017-07-23T02:52:04.034Z,937.61
2017-07-23T02:52:32.299Z,937.62
2017-07-23T02:53:00.320Z,937.65
2017-07-23T02:53:28.603Z,937.61
2017-07-23T02:53:56.861Z,937.62
2017-07-23T02:54:24.984Z,937.64
2017-07-23T02:54:53.137Z,937.63
2017-07-23T02:55:21.170Z,937.64
2017-07-23T02:55:49.233Z,937.64
2017-07-23T02:56:17.429Z,937.6
2017-07-23T02:56:45.505Z,937.63
2017-07-23T02:57:13.738Z,937.66
2017-07-23T02:57:41.800Z,937.64
2017-07-23T02:58:10.038Z,937.64
2017-07-23T02:58:38.203Z,937.64
2017-07-23T02:59:06.520Z,937.64
2017-07-23T02:59:34.634Z,937.64
2017-07-23T03:00:02.651Z,937.62
2017-07-23T03:00:30.787Z,937.61
2017-07-23T03:00:58.834Z,937.61
2017-07-23T03:01:27.066Z,937.63
2017-07-23T03:01:55.338Z,937.63
2017-07-23T03:02:23.560Z,937.61
2017-07-23T03:02:51.758Z,937.65
2017-07-23T03:03:19.905Z,937.65
2017-07-23T03:03:48.143Z,937.67
2017-07-23T03:04:16.442Z,937.63
2017-07-23T03:04:44.695Z,937.67
2017-07-23T03:05:12.892Z,937.67
2017-07-23T03:05:41.095Z,937.66
2017-07-23T03:06:09.243Z,937.62
2017-07-23T03:06:37.376Z,937.63
2017-07-23T03:07:05.582Z,937.65
2017-07-23T03:07:33.844Z,937.66
2017-07-23T03:08:02.045Z,937.62
2017-07-23T03:08:30.286Z,937.65
2017-07-23T03:08:58.478Z,937.66
2017-07-23T03:09:26.947Z,937.65
2017-07-23T03:09:55.050Z,937.63
2017-07-23T03:10:23.187Z,937.61
2017-07-23T03:10:51.270Z,937.62
2017-07-23T03:11:19.502Z,937.6
2017-07-23T03:11:47.629Z,937.63
2017-07-23T03:12:15.750Z,937.62
2017-07-23T03:12:44.023Z,937.62
2017-07-23T03:13:12.145Z,937.65
2017-07-23T03:13:40.306Z,937.62
2017-07-23T03:14:08.588Z,937.63
2017-07-23T03:14:36.659Z,937.61
2017-07-23T03:15:04.716Z,937.61
2017-07-23T03:15:32.861Z,937.58
2017-07-23T03:16:01.066Z,937.59
2017-07-23T03:16:29.332Z,937.62
2017-07-23T03:16:57.426Z,937.62
2017-07-23T03:17:25.627Z,937.61
2017-07-23T03:17:53.916Z,937.58
2017-07-23T03:18:22.036Z,937.62
2017-07-23T03:18:50.277Z,937.63
2017-07-23T03:19:18.627Z,937.57
2017-07-23T03:19:46.613Z,937.58
2017-07-23T03:20:14.800Z,937.59
2017-07-23T03:20:42.934Z,937.59
2017-07-23T03:21:11.137Z,937.63
2017-07-23T03:21:39.313Z,937.59
2017-07-23T03:22:07.554Z,937.64
2017-07-23T03:22:35.573Z,937.68
2017-07-23T03:23:03.808Z,937.7
2017-07-23T03:23:32.023Z,937.7
2017-07-23T03:24:00.163Z,937.69
2017-07-23T03:24:28.498Z,937.72
2017-07-23T03:24:56.424Z,937.75
2017-07-23T03:25:24.581Z,937.69
2017-07-23T03:25:52.672Z,937.73
2017-07-23T03:26:20.892Z,937.7
2017-07-23T03:26:49.049Z,937.7
2017-07-23T03:27:17.144Z,937.7
2017-07-23T03:27:45.145Z,937.71
2017-07-23T03:28:13.392Z,937.71
2017-07-23T03:28:41.509Z,937.7
2017-07-23T03:29:09.464Z,937.66
2017-07-23T03:29:37.751Z,937.72
2017-07-23T03:30:05.881Z,937.69
2017-07-23T03:30:34.047Z,937.7
2017-07-23T03:31:02.192Z,937.71
2017-07-23T03:31:30.129Z,937.7
2017-07-23T03:31:58.349Z,937.68
2017-07-23T03:32:26.560Z,937.66
2017-07-23T03:32:54.772Z,937.7
2017-07-23T03:33:22.678Z,937.66
2017-07-23T03:33:50.804Z,937.68
2017-07-23T03:34:19.096Z,937.7
2017-07-23T03:34:47.299Z,937.66
2017-07-23T03:35:15.527Z,937.64
2017-07-23T03:35:43.737Z,937.67
2017-07-23T03:36:11.765Z,937.62
2017-07-23T03:36:40.035Z,937.64
2017-07-23T03:37:08.283Z,937.63
2017-07-23T03:37:36.484Z,937.68
2017-07-23T03:38:04.720Z,937.61
2017-07-23T03:38:32.850Z,937.63
2017-07-23T03:39:01.061Z,937.68
2017-07-23T03:39:29.365Z,937.67
2017-07-23T03:39:57.515Z,937.65
2017-07-23T03:40:25.733Z,937.63
2017-07-23T03:40:54.012Z,937.64
2017-07-23T03:41:22.130Z,937.61
2017-07-23T03:41:50.367Z,937.62
2017-07-23T03:42:18.656Z,937.65
2017-07-23T03:42:46.795Z,937.64
2017-07-23T03:43:14.983Z,937.61
2017-07-23T03:43:43.151Z,937.63
2017-07-23T03:44:11.310Z,937.64
2017-07-23T03:44:39.659Z,937.64
2017-07-23T03:45:07.833Z,937.63
2017-07-23T03:45:35.969Z,937.65
2017-07-23T03:46:04.045Z,937.66
2017-07-23T03:46:32.297Z,937.66
2017-07-23T03:47:00.541Z,937.65
2017-07-23T03:47:28.562Z,937.67
2017-07-23T03:47:56.478Z,937.66
2017-07-23T03:48:24.857Z,937.64
2017-07-23T03:48:52.880Z,937.62
2017-07-23T03:49:20.986Z,937.64
2017-07-23T03:49:49.163Z,937.63
2017-07-23T03:50:17.259Z,937.6
2017-07-23T03:50:45.479Z,937.59
2017-07-23T03:51:13.638Z,937.61
2017-07-23T03:51:41.746Z,937.64
2017-07-23T03:52:09.828Z,937.61
2017-07-23T03:52:37.939Z,937.62
2017-07-23T03:53:06.150Z,937.61
2017-07-23T03:53:34.153Z,937.63
2017-07-23T03:54:02.427Z,937.62
2017-07-23T03:54:30.801Z,937.62
2017-07-23T03:54:58.927Z,937.63
2017-07-23T03:55:27.107Z,937.61
2017-07-23T03:55:55.326Z,937.63
2017-07-23T03:56:23.501Z,937.62
2017-07-23T03:56:51.729Z,937.62
2017-07-23T03:57:19.866Z,937.61
2017-07-23T03:57:48.016Z,937.58
2017-07-23T03:58:16.107Z,937.61
2017-07-23T03:58:44.254Z,937.6
2017-07-23T03:59:12.516Z,937.58
2017-07-23T03:59:40.782Z,937.62
2017-07-23T04:00:09.022Z,937.61
2017-07-23T04:00:37.270Z,937.54
2017-07-23T04:01:05.467Z,937.54
2017-07-23T04:01:33.701Z,937.56
2017-07-23T04:02:01.950Z,937.54
2017-07-23T04:02:30.135Z,937.57
2017-07-23T04:02:58.256Z,937.55
2017-07-23T04:03:26.361Z,937.52
2017-07-23T04:03:54.439Z,937.55
2017-07-23T04:04:22.528Z,937.54
2017-07-23T04:04:50.850Z,937.55
2017-07-23T04:05:19.077Z,937.53
2017-07-23T04:05:47.227Z,937.52
2017-07-23T04:06:15.305Z,937.52
2017-07-23T04:06:43.387Z,937.6
2017-07-23T04:07:11.520Z,937.55
2017-07-23T04:07:39.736Z,937.6
2017-07-23T04:08:07.926Z,937.52
2017-07-23T04:08:36.134Z,937.56
2017-07-23T04:09:04.219Z,937.55
2017-07-23T04:09:32.318Z,937.54
2017-07-23T04:10:00.657Z,937.55
2017-07-23T04:10:28.636Z,937.5
2017-07-23T04:10:56.647Z,937.57
2017-07-23T04:11:24.740Z,937.5
2017-07-23T04:11:52.951Z,937.48
2017-07-23T04:12:21.021Z,937.49
2017-07-23T04:12:48.980Z,937.51
2017-07-23T04:13:17.251Z,937.49
2017-07-23T04:13:45.618Z,937.49
2017-07-23T04:14:13.634Z,937.5
2017-07-23T04:14:41.853Z,937.45
2017-07-23T04:15:09.878Z,937.48
2017-07-23T04:15:38.047Z,937.48
2017-07-23T04:16:06.100Z,937.48
2017-07-23T04:16:34.283Z,937.46
2017-07-23T04:17:02.399Z,937.45
2017-07-23T04:17:30.628Z,937.49
2017-07-23T04:17:58.841Z,937.45
2017-07-23T04:18:26.924Z,937.44
2017-07-23T04:18:54.955Z,937.5
2017-07-23T04:19:23.432Z,937.47
2017-07-23T04:19:51.768Z,937.47
2017-07-23T04:20:19.924Z,937.52
2017-07-23T04:20:48.120Z,937.53
2017-07-23T04:21:16.205Z,937.5
2017-07-23T04:21:44.362Z,937.49
2017-07-23T04:22:12.564Z,937.47
2017-07-23T04:22:40.797Z,937.46
2017-07-23T04:23:08.781Z,937.43
2017-07-23T04:23:36.978Z,937.43
2017-07-23T04:24:05.044Z,937.44
2017-07-23T04:24:33.293Z,937.41
2017-07-23T04:25:01.638Z,937.43
2017-07-23T04:25:29.765Z,937.41
2017-07-23T04:25:57.951Z,937.42
2017-07-23T04:26:26.165Z,937.43
2017-07-23T04:26:54.402Z,937.46
2017-07-23T04:27:22.688Z,937.44
2017-07-23T04:27:50.803Z,937.42
2017-07-23T04:28:18.902Z,937.43
2017-07-23T04:28:47.071Z,937.47
2017-07-23T04:29:15.279Z,937.4
2017-07-23T04:29:43.511Z,937.45
2017-07-23T04:30:11.842Z,937.43
2017-07-23T04:30:39.959Z,937.42
2017-07-23T04:31:08.108Z,937.4
2017-07-23T04:31:36.232Z,937.42
2017-07-23T04:32:04.427Z,937.4
2017-07-23T04:32:32.535Z,937.39
2017-07-23T04:33:00.722Z,937.4
2017-07-23T04:33:28.934Z,937.39
2017-07-23T04:33:57.075Z,937.42
2017-07-23T04:34:25.191Z,937.43
2017-07-23T04:34:53.617Z,937.41
2017-07-23T04:35:21.787Z,937.41
2017-07-23T04:35:49.896Z,937.39
2017-07-23T04:36:18.064Z,937.39
2017-07-23T04:36:46.333Z,937.45
2017-07-23T04:37:14.368Z,937.4
2017-07-23T04:37:42.634Z,937.39
2017-07-23T04:38:10.738Z,937.38
2017-07-23T04:38:38.581Z,937.36
2017-07-23T04:39:06.719Z,937.34
2017-07-23T04:39:34.932Z,937.38
2017-07-23T04:40:03.392Z,937.44
2017-07-23T04:40:31.588Z,937.37
2017-07-23T04:40:59.799Z,937.42
2017-07-23T04:41:27.905Z,937.39
2017-07-23T04:41:55.954Z,937.38
2017-07-23T04:42:24.148Z,937.38
2017-07-23T04:42:52.168Z,937.39
2017-07-23T04:43:20.348Z,937.4
2017-07-23T04:43:48.578Z,937.41
2017-07-23T04:44:16.702Z,937.37
2017-07-23T04:44:44.764Z,937.38
2017-07-23T04:45:13.121Z,937.39
2017-07-23T04:45:41.352Z,937.37
2017-07-23T04:46:09.586Z,937.4
2017-07-23T04:46:37.793Z,937.42
2017-07-23T04:47:05.938Z,937.39
2017-07-23T04:47:34.072Z,937.38
2017-07-23T04:48:02.228Z,937.36
2017-07-23T04:48:30.311Z,937.36
2017-07-23T04:48:58.615Z,937.36
2017-07-23T04:49:26.662Z,937.37
2017-07-23T04:49:54.919Z,937.35
2017-07-23T04:50:23.281Z,937.37
2017-07-23T04:50:51.502Z,937.33
2017-07-23T04:51:19.616Z,937.35
2017-07-23T04:51:47.901Z,937.36
2017-07-23T04:52:16.190Z,937.35
2017-07-23T04:52:44.409Z,937.39
2017-07-23T04:53:12.554Z,937.34
2017-07-23T04:53:40.786Z,937.36
2017-07-23T04:54:08.948Z,937.31
2017-07-23T04:54:37.054Z,937.34
2017-07-23T04:55:05.326Z,937.34
2017-07-23T04:55:33.510Z,937.35
2017-07-23T04:56:01.735Z,937.36
2017-07-23T04:56:29.893Z,937.33
2017-07-23T04:56:58.108Z,937.32
2017-07-23T04:57:26.391Z,937.31
2017-07-23T04:57:54.662Z,937.31
2017-07-23T04:58:22.889Z,937.33
2017-07-23T04:58:50.929Z,937.3
2017-07-23T04:59:18.999Z,937.33
2017-07-23T04:59:47.358Z,937.33
2017-07-23T05:00:15.845Z,937.33
2017-07-23T05:00:44.042Z,937.32
2017-07-23T05:01:12.126Z,937.36
2017-07-23T05:01:40.177Z,937.3
2017-07-23T05:02:08.378Z,937.29
2017-07-23T05:02:36.511Z,937.29
2017-07-23T05:03:04.567Z,937.31
2017-07-23T05:03:32.679Z,937.3
2017-07-23T05:04:00.817Z,937.29
2017-07-23T05:04:29.035Z,937.28
2017-07-23T05:04:57.207Z,937.31
2017-07-23T05:05:25.342Z,937.27
2017-07-23T05:05:53.434Z,937.27
2017-07-23T05:06:21.665Z,937.27
2017-07-23T05:06:49.754Z,937.27
2017-07-23T05:07:18.006Z,937.27
2017-07-23T05:07:46.086Z,937.27
2017-07-23T05:08:14.181Z,937.27
2017-07-23T05:08:42.375Z,937.29
2017-07-23T05:09:10.531Z,937.26
2017-07-23T05:09:38.675Z,937.28
2017-07-23T05:10:06.755Z,937.25
2017-07-23T05:10:34.923Z,937.24
2017-07-23T05:11:03.142Z,937.24
2017-07-23T05:11:31.453Z,937.23
2017-07-23T05:11:59.690Z,937.25
2017-07-23T05:12:27.907Z,937.27
2017-07-23T05:12:56.150Z,937.26
2017-07-23T05:13:24.427Z,937.28
2017-07-23T05:13:52.534Z,937.28
2017-07-23T05:14:20.677Z,937.27
2017-07-23T05:14:48.758Z,937.26
2017-07-23T05:15:17.020Z,937.28
2017-07-23T05:15:45.270Z,937.27
2017-07-23T05:16:13.481Z,937.28
2017-07-23T05:16:41.704Z,937.29
2017-07-23T05:17:09.835Z,937.24
2017-07-23T05:17:37.957Z,937.24
2017-07-23T05:18:06.126Z,937.22
2017-07-23T05:18:34.386Z,937.21
2017-07-23T05:19:02.439Z,937.28
2017-07-23T05:19:30.574Z,937.22
2017-07-23T05:19:58.671Z,937.22
2017-07-23T05:20:26.973Z,937.22
2017-07-23T05:20:55.218Z,937.29
2017-07-23T05:21:23.381Z,937.26
2017-07-23T05:21:51.529Z,937.24
2017-07-23T05:22:19.792Z,937.25
2017-07-23T05:22:47.857Z,937.21
2017-07-23T05:23:15.926Z,937.21
2017-07-23T05:23:43.951Z,937.21
2017-07-23T05:24:12.139Z,937.23
2017-07-23T05:24:40.156Z,937.24
2017-07-23T05:25:08.233Z,937.19
2017-07-23T05:25:36.444Z,937.2
2017-07-23T05:26:04.546Z,937.22
2017-07-23T05:26:32.782Z,937.21
2017-07-23T05:27:00.923Z,937.2
2017-07-23T05:27:29.049Z,937.23
2017-07-23T05:27:57.187Z,937.19
2017-07-23T05:28:25.425Z,937.23
2017-07-23T05:28:53.692Z,937.19
2017-07-23T05:29:21.733Z,937.23
2017-07-23T05:29:49.901Z,937.2
2017-07-23T05:30:18.206Z,937.18
2017-07-23T05:30:46.366Z,937.2
2017-07-23T05:31:14.555Z,937.2
2017-07-23T05:31:42.754Z,937.19
2017-07-23T05:32:10.880Z,937.17
2017-07-23T05:32:39.096Z,937.18
2017-07-23T05:33:07.380Z,937.14
2017-07-23T05:33:35.472Z,937.19
2017-07-23T05:34:03.741Z,937.16
2017-07-23T05:34:31.967Z,937.13
2017-07-23T05:35:00.042Z,937.18
2017-07-23T05:35:28.360Z,937.17
2017-07-23T05:35:56.462Z,937.14
2017-07-23T05:36:24.685Z,937.15
2017-07-23T05:36:52.732Z,937.15
2017-07-23T05:37:20.748Z,937.17
2017-07-23T05:37:48.790Z,937.18
2017-07-23T05:38:17.006Z,937.17
2017-07-23T05:38:45.201Z,937.18
2017-07-23T05:39:13.376Z,937.18
2017-07-23T05:39:41.583Z,937.17
2017-07-23T05:40:09.706Z,937.16
2017-07-23T05:40:38.111Z,937.16
2017-07-23T05:41:06.274Z,937.17
2017-07-23T05:41:34.554Z,937.17
2017-07-23T05:42:02.789Z,937.16
2017-07-23T05:42:31.194Z,937.12
2017-07-23T05:42:59.349Z,937.17
2017-07-23T05:43:27.496Z,937.19
2017-07-23T05:43:55.652Z,937.17
2017-07-23T05:44:23.887Z,937.15
2017-07-23T05:44:52.163Z,937.17
2017-07-23T05:45:20.541Z,937.17
2017-07-23T05:45:48.888Z,937.15
2017-07-23T05:46:17.089Z,937.13
2017-07-23T05:46:45.298Z,937.16
2017-07-23T05:47:13.650Z,937.14
2017-07-23T05:47:41.850Z,937.16
2017-07-23T05:48:09.983Z,937.16
2017-07-23T05:48:38.259Z,937.13
2017-07-23T05:49:06.508Z,937.14
2017-07-23T05:49:34.714Z,937.14
2017-07-23T05:50:02.737Z,937.14
2017-07-23T05:50:30.951Z,937.13
2017-07-23T05:50:59.158Z,937.13
2017-07-23T05:51:27.290Z,937.17
2017-07-23T05:51:55.414Z,937.17
2017-07-23T05:52:23.535Z,937.14
2017-07-23T05:52:51.777Z,937.13
2017-07-23T05:53:19.863Z,937.15